sensor_id;sensor_type;location;lat;lon;timestamp;P1;durP1;ratioP1;P2;durP2;ratioP2
51190;SDS011;37253;48.736;9.294;2023-06-14T00:00:38;4.18;;;2.60;;
51190;SDS011;37253;48.736;9.294;2023-06-14T00:02:43;3.53;;;2.60;;
51190;SDS011;37253;48.736;9.294;2023-06-14T00:04:43;4.20;;;2.10;;
51190;SDS011;37253;48.736;9.294;2023-06-14T00:06:44;4.53;;;2.35;;
51190;SDS011;37253;48.736;9.294;2023-06-14T00:08:48;3.38;;;2.25;;
51190;SDS011;37253;48.736;9.294;2023-06-14T00:10:49;3.10;;;2.28;;
51190;SDS011;37253;48.736;9.294;2023-06-14T00:12:49;3.08;;;2.28;;
51190;SDS011;37253;48.736;9.294;2023-06-14T00:14:49;3.97;;;2.17;;
51190;SDS011;37253;48.736;9.294;2023-06-14T00:16:50;3.88;;;2.20;;
51190;SDS011;37253;48.736;9.294;2023-06-14T00:18:52;3.70;;;2.40;;
51190;SDS011;37253;48.736;9.294;2023-06-14T00:20:52;2.92;;;2.20;;
51190;SDS011;37253;48.736;9.294;2023-06-14T00:22:53;4.05;;;2.40;;
51190;SDS011;37253;48.736;9.294;2023-06-14T00:24:55;3.72;;;2.20;;
51190;SDS011;37253;48.736;9.294;2023-06-14T00:26:55;3.45;;;2.20;;
51190;SDS011;37253;48.736;9.294;2023-06-14T00:28:56;3.08;;;2.22;;
51190;SDS011;37253;48.736;9.294;2023-06-14T00:30:56;3.47;;;2.40;;
51190;SDS011;37253;48.736;9.294;2023-06-14T00:32:57;2.33;;;2.13;;
51190;SDS011;37253;48.736;9.294;2023-06-14T00:34:57;3.08;;;2.33;;
51190;SDS011;37253;48.736;9.294;2023-06-14T00:36:58;4.32;;;2.30;;
51190;SDS011;37253;48.736;9.294;2023-06-14T00:38:58;2.97;;;2.30;;
51190;SDS011;37253;48.736;9.294;2023-06-14T00:40:58;3.30;;;2.17;;
51190;SDS011;37253;48.736;9.294;2023-06-14T00:42:59;3.63;;;2.40;;
51190;SDS011;37253;48.736;9.294;2023-06-14T00:44:59;4.10;;;2.33;;
51190;SDS011;37253;48.736;9.294;2023-06-14T00:47:00;4.28;;;2.42;;
51190;SDS011;37253;48.736;9.294;2023-06-14T00:49:00;4.95;;;2.30;;
51190;SDS011;37253;48.736;9.294;2023-06-14T00:51:01;3.50;;;2.33;;
51190;SDS011;37253;48.736;9.294;2023-06-14T00:53:03;3.70;;;2.40;;
51190;SDS011;37253;48.736;9.294;2023-06-14T00:55:04;3.97;;;2.60;;
51190;SDS011;37253;48.736;9.294;2023-06-14T00:57:05;3.67;;;2.05;;
51190;SDS011;37253;48.736;9.294;2023-06-14T00:59:06;3.05;;;1.98;;
51190;SDS011;37253;48.736;9.294;2023-06-14T01:01:06;3.40;;;1.85;;
51190;SDS011;37253;48.736;9.294;2023-06-14T01:03:06;4.05;;;2.17;;
51190;SDS011;37253;48.736;9.294;2023-06-14T01:05:07;2.83;;;2.22;;
51190;SDS011;37253;48.736;9.294;2023-06-14T01:07:15;3.78;;;2.10;;
51190;SDS011;37253;48.736;9.294;2023-06-14T01:09:23;3.55;;;2.65;;
51190;SDS011;37253;48.736;9.294;2023-06-14T01:11:31;3.25;;;2.28;;
51190;SDS011;37253;48.736;9.294;2023-06-14T01:13:34;3.10;;;2.22;;
51190;SDS011;37253;48.736;9.294;2023-06-14T01:15:35;4.65;;;2.20;;
51190;SDS011;37253;48.736;9.294;2023-06-14T01:17:37;3.00;;;2.10;;
51190;SDS011;37253;48.736;9.294;2023-06-14T01:19:44;3.08;;;2.33;;
51190;SDS011;37253;48.736;9.294;2023-06-14T01:21:45;5.55;;;2.13;;
51190;SDS011;37253;48.736;9.294;2023-06-14T01:23:45;3.50;;;2.30;;
51190;SDS011;37253;48.736;9.294;2023-06-14T01:25:52;3.60;;;2.22;;
51190;SDS011;37253;48.736;9.294;2023-06-14T01:27:53;3.13;;;2.22;;
51190;SDS011;37253;48.736;9.294;2023-06-14T01:29:56;3.80;;;2.40;;
51190;SDS011;37253;48.736;9.294;2023-06-14T01:31:57;3.08;;;2.10;;
51190;SDS011;37253;48.736;9.294;2023-06-14T01:33:57;3.10;;;2.15;;
51190;SDS011;37253;48.736;9.294;2023-06-14T01:35:57;3.25;;;2.08;;
51190;SDS011;37253;48.736;9.294;2023-06-14T01:37:58;3.92;;;2.33;;
51190;SDS011;37253;48.736;9.294;2023-06-14T01:40:00;3.90;;;2.47;;
51190;SDS011;37253;48.736;9.294;2023-06-14T01:42:02;3.17;;;2.40;;
51190;SDS011;37253;48.736;9.294;2023-06-14T01:44:02;2.10;;;1.90;;
51190;SDS011;37253;48.736;9.294;2023-06-14T01:46:03;4.82;;;2.35;;
51190;SDS011;37253;48.736;9.294;2023-06-14T01:48:04;4.68;;;2.42;;
51190;SDS011;37253;48.736;9.294;2023-06-14T01:50:05;2.35;;;2.15;;
51190;SDS011;37253;48.736;9.294;2023-06-14T01:52:06;2.88;;;2.40;;
51190;SDS011;37253;48.736;9.294;2023-06-14T01:54:09;3.05;;;2.20;;
51190;SDS011;37253;48.736;9.294;2023-06-14T01:56:10;3.05;;;2.35;;
51190;SDS011;37253;48.736;9.294;2023-06-14T01:58:10;2.30;;;1.92;;
51190;SDS011;37253;48.736;9.294;2023-06-14T02:00:11;4.55;;;2.30;;
51190;SDS011;37253;48.736;9.294;2023-06-14T02:02:12;4.68;;;2.15;;
51190;SDS011;37253;48.736;9.294;2023-06-14T02:04:13;2.90;;;2.17;;
51190;SDS011;37253;48.736;9.294;2023-06-14T02:06:13;2.40;;;2.20;;
51190;SDS011;37253;48.736;9.294;2023-06-14T02:08:15;2.38;;;2.17;;
51190;SDS011;37253;48.736;9.294;2023-06-14T02:10:16;2.80;;;2.13;;
51190;SDS011;37253;48.736;9.294;2023-06-14T02:12:17;5.57;;;2.20;;
51190;SDS011;37253;48.736;9.294;2023-06-14T02:14:17;5.25;;;2.35;;
51190;SDS011;37253;48.736;9.294;2023-06-14T02:16:18;2.55;;;2.00;;
51190;SDS011;37253;48.736;9.294;2023-06-14T02:18:18;2.58;;;2.17;;
51190;SDS011;37253;48.736;9.294;2023-06-14T02:20:18;2.85;;;2.20;;
51190;SDS011;37253;48.736;9.294;2023-06-14T02:22:19;3.05;;;2.00;;
51190;SDS011;37253;48.736;9.294;2023-06-14T02:24:20;3.05;;;2.30;;
51190;SDS011;37253;48.736;9.294;2023-06-14T02:26:21;3.75;;;2.38;;
51190;SDS011;37253;48.736;9.294;2023-06-14T02:28:22;3.97;;;2.33;;
51190;SDS011;37253;48.736;9.294;2023-06-14T02:30:22;2.72;;;1.80;;
51190;SDS011;37253;48.736;9.294;2023-06-14T02:32:23;5.43;;;2.28;;
51190;SDS011;37253;48.736;9.294;2023-06-14T02:34:23;2.92;;;2.38;;
51190;SDS011;37253;48.736;9.294;2023-06-14T02:36:23;3.35;;;2.00;;
51190;SDS011;37253;48.736;9.294;2023-06-14T02:38:24;4.05;;;2.10;;
51190;SDS011;37253;48.736;9.294;2023-06-14T02:40:25;2.10;;;1.83;;
51190;SDS011;37253;48.736;9.294;2023-06-14T02:42:25;2.28;;;2.00;;
51190;SDS011;37253;48.736;9.294;2023-06-14T02:44:26;3.75;;;2.28;;
51190;SDS011;37253;48.736;9.294;2023-06-14T02:46:27;3.28;;;2.20;;
51190;SDS011;37253;48.736;9.294;2023-06-14T02:48:27;4.20;;;2.20;;
51190;SDS011;37253;48.736;9.294;2023-06-14T02:50:28;2.83;;;2.15;;
51190;SDS011;37253;48.736;9.294;2023-06-14T02:52:30;3.30;;;2.15;;
51190;SDS011;37253;48.736;9.294;2023-06-14T02:54:33;2.67;;;2.40;;
51190;SDS011;37253;48.736;9.294;2023-06-14T02:56:33;2.80;;;2.03;;
51190;SDS011;37253;48.736;9.294;2023-06-14T02:58:33;2.83;;;2.17;;
51190;SDS011;37253;48.736;9.294;2023-06-14T03:00:34;4.93;;;2.30;;
51190;SDS011;37253;48.736;9.294;2023-06-14T03:02:36;2.83;;;2.25;;
51190;SDS011;37253;48.736;9.294;2023-06-14T03:04:36;2.97;;;2.05;;
51190;SDS011;37253;48.736;9.294;2023-06-14T03:06:40;2.75;;;2.22;;
51190;SDS011;37253;48.736;9.294;2023-06-14T03:10:47;3.30;;;2.05;;
51190;SDS011;37253;48.736;9.294;2023-06-14T03:12:48;3.00;;;2.00;;
51190;SDS011;37253;48.736;9.294;2023-06-14T03:14:50;2.85;;;2.17;;
51190;SDS011;37253;48.736;9.294;2023-06-14T03:16:51;2.83;;;2.10;;
51190;SDS011;37253;48.736;9.294;2023-06-14T03:18:56;2.55;;;2.10;;
51190;SDS011;37253;48.736;9.294;2023-06-14T03:20:57;2.20;;;2.00;;
51190;SDS011;37253;48.736;9.294;2023-06-14T03:23:01;2.70;;;2.25;;
51190;SDS011;37253;48.736;9.294;2023-06-14T03:25:02;3.72;;;2.05;;
51190;SDS011;37253;48.736;9.294;2023-06-14T03:27:05;3.10;;;2.28;;
51190;SDS011;37253;48.736;9.294;2023-06-14T03:29:05;3.22;;;2.03;;
51190;SDS011;37253;48.736;9.294;2023-06-14T03:31:06;2.33;;;2.08;;
51190;SDS011;37253;48.736;9.294;2023-06-14T03:33:07;3.85;;;1.98;;
51190;SDS011;37253;48.736;9.294;2023-06-14T03:35:08;2.78;;;1.95;;
51190;SDS011;37253;48.736;9.294;2023-06-14T03:37:10;1.90;;;1.73;;
51190;SDS011;37253;48.736;9.294;2023-06-14T03:39:10;2.65;;;2.20;;
51190;SDS011;37253;48.736;9.294;2023-06-14T03:41:10;3.55;;;2.25;;
51190;SDS011;37253;48.736;9.294;2023-06-14T03:43:11;2.08;;;1.88;;
51190;SDS011;37253;48.736;9.294;2023-06-14T03:45:11;5.55;;;1.95;;
51190;SDS011;37253;48.736;9.294;2023-06-14T03:47:11;2.97;;;2.20;;
51190;SDS011;37253;48.736;9.294;2023-06-14T03:49:12;2.50;;;2.00;;
51190;SDS011;37253;48.736;9.294;2023-06-14T03:51:12;2.65;;;2.10;;
51190;SDS011;37253;48.736;9.294;2023-06-14T03:53:13;3.17;;;2.30;;
51190;SDS011;37253;48.736;9.294;2023-06-14T03:55:13;2.03;;;1.83;;
51190;SDS011;37253;48.736;9.294;2023-06-14T03:57:14;4.40;;;2.47;;
51190;SDS011;37253;48.736;9.294;2023-06-14T03:59:14;2.35;;;2.15;;
51190;SDS011;37253;48.736;9.294;2023-06-14T04:01:15;4.68;;;2.25;;
51190;SDS011;37253;48.736;9.294;2023-06-14T04:03:15;1.77;;;1.67;;
51190;SDS011;37253;48.736;9.294;2023-06-14T04:05:15;2.47;;;1.90;;
51190;SDS011;37253;48.736;9.294;2023-06-14T04:07:16;3.17;;;1.90;;
51190;SDS011;37253;48.736;9.294;2023-06-14T04:09:19;3.15;;;2.22;;
51190;SDS011;37253;48.736;9.294;2023-06-14T04:11:20;2.42;;;1.92;;
51190;SDS011;37253;48.736;9.294;2023-06-14T04:13:20;2.45;;;2.25;;
51190;SDS011;37253;48.736;9.294;2023-06-14T04:15:20;5.95;;;2.20;;
51190;SDS011;37253;48.736;9.294;2023-06-14T04:17:20;3.25;;;2.40;;
51190;SDS011;37253;48.736;9.294;2023-06-14T04:19:21;4.55;;;2.30;;
51190;SDS011;37253;48.736;9.294;2023-06-14T04:21:21;7.57;;;2.42;;
51190;SDS011;37253;48.736;9.294;2023-06-14T04:23:23;6.70;;;2.45;;
51190;SDS011;37253;48.736;9.294;2023-06-14T04:25:23;5.03;;;2.60;;
51190;SDS011;37253;48.736;9.294;2023-06-14T04:27:26;3.70;;;2.50;;
51190;SDS011;37253;48.736;9.294;2023-06-14T04:29:26;3.08;;;2.33;;
51190;SDS011;37253;48.736;9.294;2023-06-14T04:31:29;3.13;;;2.58;;
51190;SDS011;37253;48.736;9.294;2023-06-14T04:33:35;4.72;;;2.38;;
51190;SDS011;37253;48.736;9.294;2023-06-14T04:35:43;2.58;;;2.25;;
51190;SDS011;37253;48.736;9.294;2023-06-14T04:37:47;3.53;;;2.42;;
51190;SDS011;37253;48.736;9.294;2023-06-14T04:39:48;6.03;;;2.80;;
51190;SDS011;37253;48.736;9.294;2023-06-14T04:41:48;3.00;;;2.53;;
51190;SDS011;37253;48.736;9.294;2023-06-14T04:43:52;5.57;;;2.88;;
51190;SDS011;37253;48.736;9.294;2023-06-14T04:45:53;4.13;;;2.95;;
51190;SDS011;37253;48.736;9.294;2023-06-14T04:47:54;5.13;;;2.88;;
51190;SDS011;37253;48.736;9.294;2023-06-14T04:49:57;6.30;;;3.00;;
51190;SDS011;37253;48.736;9.294;2023-06-14T04:51:57;4.25;;;2.30;;
51190;SDS011;37253;48.736;9.294;2023-06-14T04:53:59;4.85;;;3.03;;
51190;SDS011;37253;48.736;9.294;2023-06-14T04:56:01;3.65;;;2.67;;
51190;SDS011;37253;48.736;9.294;2023-06-14T04:58:02;6.32;;;2.97;;
51190;SDS011;37253;48.736;9.294;2023-06-14T05:00:03;3.08;;;2.50;;
51190;SDS011;37253;48.736;9.294;2023-06-14T05:02:05;3.67;;;2.50;;
51190;SDS011;37253;48.736;9.294;2023-06-14T05:04:06;5.28;;;2.60;;
51190;SDS011;37253;48.736;9.294;2023-06-14T05:06:07;5.68;;;3.42;;
51190;SDS011;37253;48.736;9.294;2023-06-14T05:08:07;6.60;;;3.33;;
51190;SDS011;37253;48.736;9.294;2023-06-14T05:10:08;8.57;;;2.85;;
51190;SDS011;37253;48.736;9.294;2023-06-14T05:12:10;4.50;;;3.22;;
51190;SDS011;37253;48.736;9.294;2023-06-14T05:14:10;8.73;;;3.60;;
51190;SDS011;37253;48.736;9.294;2023-06-14T05:16:11;8.60;;;2.40;;
51190;SDS011;37253;48.736;9.294;2023-06-14T05:18:12;5.82;;;2.95;;
51190;SDS011;37253;48.736;9.294;2023-06-14T05:20:13;6.03;;;2.88;;
51190;SDS011;37253;48.736;9.294;2023-06-14T05:22:13;5.30;;;2.70;;
51190;SDS011;37253;48.736;9.294;2023-06-14T05:24:14;4.70;;;3.25;;
51190;SDS011;37253;48.736;9.294;2023-06-14T05:26:14;9.80;;;3.50;;
51190;SDS011;37253;48.736;9.294;2023-06-14T05:28:15;7.38;;;2.95;;
51190;SDS011;37253;48.736;9.294;2023-06-14T05:30:16;14.63;;;3.20;;
51190;SDS011;37253;48.736;9.294;2023-06-14T05:32:16;7.05;;;3.10;;
51190;SDS011;37253;48.736;9.294;2023-06-14T05:34:17;5.40;;;2.92;;
51190;SDS011;37253;48.736;9.294;2023-06-14T05:36:17;5.70;;;3.22;;
51190;SDS011;37253;48.736;9.294;2023-06-14T05:38:18;5.63;;;3.08;;
51190;SDS011;37253;48.736;9.294;2023-06-14T05:40:18;7.78;;;2.95;;
51190;SDS011;37253;48.736;9.294;2023-06-14T05:42:19;6.88;;;2.83;;
51190;SDS011;37253;48.736;9.294;2023-06-14T05:44:19;5.60;;;2.90;;
51190;SDS011;37253;48.736;9.294;2023-06-14T05:46:19;9.30;;;3.13;;
51190;SDS011;37253;48.736;9.294;2023-06-14T05:48:22;10.32;;;3.00;;
51190;SDS011;37253;48.736;9.294;2023-06-14T05:50:22;7.07;;;2.88;;
51190;SDS011;37253;48.736;9.294;2023-06-14T05:52:22;6.88;;;2.85;;
51190;SDS011;37253;48.736;9.294;2023-06-14T05:54:23;6.03;;;2.72;;
51190;SDS011;37253;48.736;9.294;2023-06-14T05:56:23;6.82;;;2.58;;
51190;SDS011;37253;48.736;9.294;2023-06-14T05:58:23;8.00;;;2.92;;
51190;SDS011;37253;48.736;9.294;2023-06-14T06:00:23;7.82;;;3.33;;
51190;SDS011;37253;48.736;9.294;2023-06-14T06:02:24;10.68;;;3.40;;
51190;SDS011;37253;48.736;9.294;2023-06-14T06:04:24;7.88;;;3.10;;
51190;SDS011;37253;48.736;9.294;2023-06-14T06:06:25;4.40;;;2.83;;
51190;SDS011;37253;48.736;9.294;2023-06-14T06:08:26;10.50;;;3.38;;
51190;SDS011;37253;48.736;9.294;2023-06-14T06:10:27;4.95;;;3.30;;
51190;SDS011;37253;48.736;9.294;2023-06-14T06:12:27;7.90;;;3.38;;
51190;SDS011;37253;48.736;9.294;2023-06-14T06:14:27;5.57;;;2.83;;
51190;SDS011;37253;48.736;9.294;2023-06-14T06:16:27;3.33;;;2.83;;
51190;SDS011;37253;48.736;9.294;2023-06-14T06:18:28;4.43;;;2.50;;
51190;SDS011;37253;48.736;9.294;2023-06-14T06:20:28;10.23;;;3.28;;
51190;SDS011;37253;48.736;9.294;2023-06-14T06:22:31;7.28;;;2.90;;
51190;SDS011;37253;48.736;9.294;2023-06-14T06:24:32;5.97;;;2.75;;
51190;SDS011;37253;48.736;9.294;2023-06-14T06:26:32;6.97;;;2.65;;
51190;SDS011;37253;48.736;9.294;2023-06-14T06:28:32;7.60;;;2.70;;
51190;SDS011;37253;48.736;9.294;2023-06-14T06:30:33;6.13;;;3.28;;
51190;SDS011;37253;48.736;9.294;2023-06-14T06:32:33;3.78;;;2.58;;
51190;SDS011;37253;48.736;9.294;2023-06-14T06:34:33;3.60;;;2.80;;
51190;SDS011;37253;48.736;9.294;2023-06-14T06:36:34;3.80;;;2.85;;
51190;SDS011;37253;48.736;9.294;2023-06-14T06:38:35;3.40;;;2.65;;
51190;SDS011;37253;48.736;9.294;2023-06-14T06:40:35;5.00;;;2.70;;
51190;SDS011;37253;48.736;9.294;2023-06-14T06:42:36;7.00;;;3.13;;
51190;SDS011;37253;48.736;9.294;2023-06-14T06:44:36;5.50;;;3.10;;
51190;SDS011;37253;48.736;9.294;2023-06-14T06:46:37;7.15;;;2.88;;
51190;SDS011;37253;48.736;9.294;2023-06-14T06:48:41;4.95;;;2.60;;
51190;SDS011;37253;48.736;9.294;2023-06-14T06:50:41;4.15;;;2.45;;
51190;SDS011;37253;48.736;9.294;2023-06-14T06:52:41;4.90;;;2.85;;
51190;SDS011;37253;48.736;9.294;2023-06-14T06:54:41;3.83;;;2.47;;
51190;SDS011;37253;48.736;9.294;2023-06-14T06:56:42;3.72;;;2.97;;
51190;SDS011;37253;48.736;9.294;2023-06-14T06:58:42;4.07;;;2.97;;
51190;SDS011;37253;48.736;9.294;2023-06-14T07:00:42;4.95;;;2.42;;
51190;SDS011;37253;48.736;9.294;2023-06-14T07:02:43;7.18;;;3.03;;
51190;SDS011;37253;48.736;9.294;2023-06-14T07:04:43;10.05;;;2.90;;
51190;SDS011;37253;48.736;9.294;2023-06-14T07:06:43;8.65;;;2.97;;
51190;SDS011;37253;48.736;9.294;2023-06-14T07:08:44;4.05;;;2.90;;
51190;SDS011;37253;48.736;9.294;2023-06-14T07:10:44;3.83;;;2.70;;
51190;SDS011;37253;48.736;9.294;2023-06-14T07:12:45;3.80;;;2.72;;
51190;SDS011;37253;48.736;9.294;2023-06-14T07:14:45;4.53;;;2.53;;
51190;SDS011;37253;48.736;9.294;2023-06-14T07:16:46;3.25;;;2.40;;
51190;SDS011;37253;48.736;9.294;2023-06-14T07:18:46;11.75;;;2.47;;
51190;SDS011;37253;48.736;9.294;2023-06-14T07:20:46;4.78;;;2.67;;
51190;SDS011;37253;48.736;9.294;2023-06-14T07:22:47;4.93;;;2.92;;
51190;SDS011;37253;48.736;9.294;2023-06-14T07:24:47;2.70;;;2.28;;
51190;SDS011;37253;48.736;9.294;2023-06-14T07:26:49;4.25;;;2.25;;
51190;SDS011;37253;48.736;9.294;2023-06-14T07:28:49;5.03;;;2.58;;
51190;SDS011;37253;48.736;9.294;2023-06-14T07:30:49;6.82;;;2.70;;
51190;SDS011;37253;48.736;9.294;2023-06-14T07:32:50;5.38;;;2.50;;
51190;SDS011;37253;48.736;9.294;2023-06-14T07:34:50;5.22;;;2.15;;
51190;SDS011;37253;48.736;9.294;2023-06-14T07:36:50;4.10;;;3.10;;
51190;SDS011;37253;48.736;9.294;2023-06-14T07:38:51;6.13;;;2.63;;
51190;SDS011;37253;48.736;9.294;2023-06-14T07:40:51;3.88;;;2.67;;
51190;SDS011;37253;48.736;9.294;2023-06-14T07:42:51;8.23;;;2.85;;
51190;SDS011;37253;48.736;9.294;2023-06-14T07:44:54;5.30;;;2.90;;
51190;SDS011;37253;48.736;9.294;2023-06-14T07:46:54;3.83;;;2.08;;
51190;SDS011;37253;48.736;9.294;2023-06-14T07:48:57;4.68;;;2.70;;
51190;SDS011;37253;48.736;9.294;2023-06-14T07:50:57;3.67;;;2.65;;
51190;SDS011;37253;48.736;9.294;2023-06-14T07:52:58;3.35;;;2.53;;
51190;SDS011;37253;48.736;9.294;2023-06-14T07:54:58;2.97;;;1.98;;
51190;SDS011;37253;48.736;9.294;2023-06-14T07:56:58;6.40;;;2.70;;
51190;SDS011;37253;48.736;9.294;2023-06-14T07:59:00;3.85;;;2.83;;
51190;SDS011;37253;48.736;9.294;2023-06-14T08:01:00;6.95;;;2.53;;
51190;SDS011;37253;48.736;9.294;2023-06-14T08:03:06;3.50;;;2.75;;
51190;SDS011;37253;48.736;9.294;2023-06-14T08:05:06;6.53;;;2.72;;
51190;SDS011;37253;48.736;9.294;2023-06-14T08:07:07;2.97;;;2.42;;
51190;SDS011;37253;48.736;9.294;2023-06-14T08:09:07;3.05;;;2.50;;
51190;SDS011;37253;48.736;9.294;2023-06-14T08:11:07;5.13;;;2.53;;
51190;SDS011;37253;48.736;9.294;2023-06-14T08:13:07;3.38;;;2.53;;
51190;SDS011;37253;48.736;9.294;2023-06-14T08:15:09;4.82;;;2.60;;
51190;SDS011;37253;48.736;9.294;2023-06-14T08:17:10;3.42;;;2.10;;
51190;SDS011;37253;48.736;9.294;2023-06-14T08:19:10;6.15;;;2.78;;
51190;SDS011;37253;48.736;9.294;2023-06-14T08:21:11;4.80;;;2.28;;
51190;SDS011;37253;48.736;9.294;2023-06-14T08:23:11;4.18;;;2.53;;
51190;SDS011;37253;48.736;9.294;2023-06-14T08:25:11;3.25;;;2.33;;
51190;SDS011;37253;48.736;9.294;2023-06-14T08:27:12;2.47;;;2.10;;
51190;SDS011;37253;48.736;9.294;2023-06-14T08:29:13;5.47;;;2.63;;
51190;SDS011;37253;48.736;9.294;2023-06-14T08:31:13;5.38;;;2.55;;
51190;SDS011;37253;48.736;9.294;2023-06-14T08:33:14;5.13;;;2.55;;
51190;SDS011;37253;48.736;9.294;2023-06-14T08:35:14;6.10;;;2.47;;
51190;SDS011;37253;48.736;9.294;2023-06-14T08:37:15;5.50;;;2.25;;
51190;SDS011;37253;48.736;9.294;2023-06-14T08:39:15;2.95;;;2.30;;
51190;SDS011;37253;48.736;9.294;2023-06-14T08:41:22;2.88;;;2.08;;
51190;SDS011;37253;48.736;9.294;2023-06-14T08:43:24;3.60;;;2.33;;
51190;SDS011;37253;48.736;9.294;2023-06-14T08:45:24;2.40;;;2.20;;
51190;SDS011;37253;48.736;9.294;2023-06-14T08:47:25;2.90;;;2.30;;
51190;SDS011;37253;48.736;9.294;2023-06-14T08:49:26;3.20;;;2.58;;
51190;SDS011;37253;48.736;9.294;2023-06-14T08:51:27;3.50;;;2.40;;
51190;SDS011;37253;48.736;9.294;2023-06-14T08:53:33;4.90;;;2.53;;
51190;SDS011;37253;48.736;9.294;2023-06-14T08:55:36;3.20;;;2.20;;
51190;SDS011;37253;48.736;9.294;2023-06-14T08:57:39;3.42;;;2.40;;
51190;SDS011;37253;48.736;9.294;2023-06-14T08:59:47;2.92;;;2.38;;
51190;SDS011;37253;48.736;9.294;2023-06-14T09:01:52;3.88;;;2.17;;
51190;SDS011;37253;48.736;9.294;2023-06-14T09:03:54;6.80;;;2.28;;
51190;SDS011;37253;48.736;9.294;2023-06-14T09:05:57;2.85;;;2.47;;
51190;SDS011;37253;48.736;9.294;2023-06-14T09:08:01;7.15;;;2.47;;
51190;SDS011;37253;48.736;9.294;2023-06-14T09:10:12;2.90;;;2.22;;
51190;SDS011;37253;48.736;9.294;2023-06-14T09:12:13;2.63;;;2.40;;
51190;SDS011;37253;48.736;9.294;2023-06-14T09:14:13;3.88;;;2.25;;
51190;SDS011;37253;48.736;9.294;2023-06-14T09:16:14;3.00;;;2.20;;
51190;SDS011;37253;48.736;9.294;2023-06-14T09:18:14;3.92;;;2.55;;
51190;SDS011;37253;48.736;9.294;2023-06-14T09:20:15;3.13;;;2.83;;
51190;SDS011;37253;48.736;9.294;2023-06-14T09:22:18;3.95;;;2.40;;
51190;SDS011;37253;48.736;9.294;2023-06-14T09:24:19;3.15;;;2.35;;
51190;SDS011;37253;48.736;9.294;2023-06-14T09:26:19;3.17;;;2.20;;
51190;SDS011;37253;48.736;9.294;2023-06-14T09:28:20;3.97;;;2.05;;
51190;SDS011;37253;48.736;9.294;2023-06-14T09:30:27;5.38;;;2.13;;
51190;SDS011;37253;48.736;9.294;2023-06-14T09:32:28;2.97;;;2.45;;
51190;SDS011;37253;48.736;9.294;2023-06-14T09:34:28;2.50;;;1.98;;
51190;SDS011;37253;48.736;9.294;2023-06-14T09:36:31;3.72;;;2.20;;
51190;SDS011;37253;48.736;9.294;2023-06-14T09:38:33;4.07;;;2.35;;
51190;SDS011;37253;48.736;9.294;2023-06-14T09:40:34;2.67;;;2.03;;
51190;SDS011;37253;48.736;9.294;2023-06-14T09:42:38;3.40;;;2.25;;
51190;SDS011;37253;48.736;9.294;2023-06-14T09:44:38;2.25;;;2.00;;
51190;SDS011;37253;48.736;9.294;2023-06-14T09:46:39;3.00;;;2.15;;
51190;SDS011;37253;48.736;9.294;2023-06-14T09:48:39;2.92;;;2.05;;
51190;SDS011;37253;48.736;9.294;2023-06-14T09:50:42;3.63;;;2.03;;
51190;SDS011;37253;48.736;9.294;2023-06-14T09:52:44;2.67;;;1.97;;
51190;SDS011;37253;48.736;9.294;2023-06-14T09:54:47;1.90;;;1.80;;
51190;SDS011;37253;48.736;9.294;2023-06-14T09:56:48;3.42;;;2.13;;
51190;SDS011;37253;48.736;9.294;2023-06-14T09:58:53;2.00;;;1.67;;
51190;SDS011;37253;48.736;9.294;2023-06-14T10:00:55;3.78;;;2.25;;
51190;SDS011;37253;48.736;9.294;2023-06-14T10:02:57;3.53;;;2.20;;
51190;SDS011;37253;48.736;9.294;2023-06-14T10:05:04;4.78;;;2.40;;
51190;SDS011;37253;48.736;9.294;2023-06-14T10:07:08;2.47;;;2.15;;
51190;SDS011;37253;48.736;9.294;2023-06-14T10:09:09;5.70;;;1.98;;
51190;SDS011;37253;48.736;9.294;2023-06-14T10:11:11;2.00;;;1.75;;
51190;SDS011;37253;48.736;9.294;2023-06-14T10:13:13;8.73;;;2.53;;
51190;SDS011;37253;48.736;9.294;2023-06-14T10:15:22;5.10;;;2.35;;
51190;SDS011;37253;48.736;9.294;2023-06-14T10:17:42;1.95;;;1.83;;
51190;SDS011;37253;48.736;9.294;2023-06-14T10:19:54;5.00;;;2.10;;
51190;SDS011;37253;48.736;9.294;2023-06-14T10:22:19;4.40;;;2.20;;
51190;SDS011;37253;48.736;9.294;2023-06-14T10:24:42;6.22;;;2.00;;
51190;SDS011;37253;48.736;9.294;2023-06-14T10:26:50;4.82;;;1.65;;
51190;SDS011;37253;48.736;9.294;2023-06-14T10:29:05;4.72;;;2.10;;
51190;SDS011;37253;48.736;9.294;2023-06-14T10:31:11;3.28;;;1.80;;
51190;SDS011;37253;48.736;9.294;2023-06-14T10:33:13;2.97;;;1.80;;
51190;SDS011;37253;48.736;9.294;2023-06-14T10:35:16;2.70;;;1.73;;
51190;SDS011;37253;48.736;9.294;2023-06-14T10:37:16;3.30;;;2.15;;
51190;SDS011;37253;48.736;9.294;2023-06-14T10:39:17;2.72;;;2.10;;
51190;SDS011;37253;48.736;9.294;2023-06-14T10:41:17;2.17;;;1.85;;
51190;SDS011;37253;48.736;9.294;2023-06-14T10:43:22;4.20;;;2.17;;
51190;SDS011;37253;48.736;9.294;2023-06-14T10:45:23;3.67;;;2.25;;
51190;SDS011;37253;48.736;9.294;2023-06-14T10:51:49;3.95;;;2.00;;
51190;SDS011;37253;48.736;9.294;2023-06-14T10:53:51;3.55;;;2.00;;
51190;SDS011;37253;48.736;9.294;2023-06-14T10:55:52;6.43;;;2.10;;
51190;SDS011;37253;48.736;9.294;2023-06-14T10:57:52;2.22;;;2.08;;
51190;SDS011;37253;48.736;9.294;2023-06-14T10:59:57;3.72;;;2.22;;
51190;SDS011;37253;48.736;9.294;2023-06-14T11:04:34;3.60;;;2.15;;
51190;SDS011;37253;48.736;9.294;2023-06-14T11:06:48;4.53;;;2.42;;
51190;SDS011;37253;48.736;9.294;2023-06-14T11:11:16;14.90;;;2.10;;
51190;SDS011;37253;48.736;9.294;2023-06-14T11:13:17;8.93;;;1.80;;
51190;SDS011;37253;48.736;9.294;2023-06-14T11:15:17;2.20;;;1.95;;
51190;SDS011;37253;48.736;9.294;2023-06-14T11:17:17;4.60;;;1.95;;
51190;SDS011;37253;48.736;9.294;2023-06-14T11:19:18;3.95;;;2.20;;
51190;SDS011;37253;48.736;9.294;2023-06-14T11:21:19;2.53;;;1.98;;
51190;SDS011;37253;48.736;9.294;2023-06-14T11:23:21;5.43;;;2.45;;
51190;SDS011;37253;48.736;9.294;2023-06-14T11:25:21;5.22;;;1.85;;
51190;SDS011;37253;48.736;9.294;2023-06-14T11:27:21;2.92;;;2.22;;
51190;SDS011;37253;48.736;9.294;2023-06-14T11:29:22;3.53;;;2.30;;
51190;SDS011;37253;48.736;9.294;2023-06-14T11:31:22;3.58;;;2.10;;
51190;SDS011;37253;48.736;9.294;2023-06-14T11:33:23;2.20;;;1.92;;
51190;SDS011;37253;48.736;9.294;2023-06-14T11:35:24;10.20;;;2.22;;
51190;SDS011;37253;48.736;9.294;2023-06-14T11:37:25;4.32;;;1.90;;
51190;SDS011;37253;48.736;9.294;2023-06-14T11:39:28;4.65;;;2.28;;
51190;SDS011;37253;48.736;9.294;2023-06-14T11:41:39;3.45;;;2.40;;
51190;SDS011;37253;48.736;9.294;2023-06-14T11:43:40;3.97;;;1.98;;
51190;SDS011;37253;48.736;9.294;2023-06-14T11:45:41;3.28;;;2.08;;
51190;SDS011;37253;48.736;9.294;2023-06-14T11:47:41;5.25;;;2.20;;
51190;SDS011;37253;48.736;9.294;2023-06-14T11:49:42;6.25;;;2.33;;
51190;SDS011;37253;48.736;9.294;2023-06-14T11:51:43;7.10;;;2.00;;
51190;SDS011;37253;48.736;9.294;2023-06-14T11:53:43;3.67;;;2.20;;
51190;SDS011;37253;48.736;9.294;2023-06-14T11:55:44;2.50;;;2.03;;
51190;SDS011;37253;48.736;9.294;2023-06-14T11:57:46;5.68;;;2.22;;
51190;SDS011;37253;48.736;9.294;2023-06-14T11:59:46;4.00;;;2.40;;
51190;SDS011;37253;48.736;9.294;2023-06-14T12:01:47;2.45;;;2.13;;
51190;SDS011;37253;48.736;9.294;2023-06-14T12:03:51;3.47;;;2.10;;
51190;SDS011;37253;48.736;9.294;2023-06-14T12:06:05;4.25;;;2.00;;
51190;SDS011;37253;48.736;9.294;2023-06-14T12:08:09;4.00;;;1.90;;
51190;SDS011;37253;48.736;9.294;2023-06-14T12:10:09;3.80;;;2.13;;
51190;SDS011;37253;48.736;9.294;2023-06-14T12:12:11;2.88;;;2.00;;
51190;SDS011;37253;48.736;9.294;2023-06-14T12:14:12;3.35;;;1.90;;
51190;SDS011;37253;48.736;9.294;2023-06-14T12:16:12;4.43;;;1.80;;
51190;SDS011;37253;48.736;9.294;2023-06-14T12:18:12;3.42;;;2.30;;
51190;SDS011;37253;48.736;9.294;2023-06-14T12:20:13;2.30;;;2.10;;
51190;SDS011;37253;48.736;9.294;2023-06-14T12:22:14;3.70;;;1.98;;
51190;SDS011;37253;48.736;9.294;2023-06-14T12:24:14;3.50;;;1.75;;